Garden City, South Dakota
Current Conditions -  °F | °C
As of 10:24 PM on Friday 19 Dec 2014 (Local Time) from KATY Reporting Station
Haze Haze  
Wind Chill: 18°   Ceiling: 200
Heat Index: 29°   Visibility: 3mi
Dew Point: 28°   Wind: 14mph
Humidity: 96%   Direction: 200°SSW
Pressure: 30.01"   Gusts: NA
Location:  44.96°N, 97.58°W
Report Text: KATY 200424Z AUTO 20012KT 3SM BR OVC002 M02/M02 A3001 RMK AO2 T10171022
Loading
Personal Weather Stations






























Interactive Weather Map New forecast layout! Learn more

10-Day Weather Forecast

Advertisements
Track Severe Weather on mobile